Flight Track Log - Related Links

Times and Time Zones

All times are in EDT time to prevent confusion due to time zone crossing. See the N706CJ flight status page for this flight to view local times or setup timezone preferences in your user account.

Time Position Orientation Groundspeed Altitude Reporting Facility
EDT Latitude Longitude Course Direction KTS MPH feet Rate Location/Type
Sun 07:32:21 PM 41.5539 -81.5017 172° South 174 200 1,600  Level Cleveland Center
Sun 07:33:58 PM 41.4519 -81.4836 172° South 259 298 4,500 3,096 Climbing Cleveland Center
Sun 07:34:58 PM 41.3900 -81.4244 144° Southeast 264 304 9,700 4,500 Climbing Cleveland Center
Sun 07:35:58 PM 41.3153 -81.3656 149° Southeast 292 336 13,500 4,050 Climbing Cleveland Center
Sun 07:36:58 PM 41.2322 -81.2983 149° Southeast 338 389 17,800 3,750 Climbing Cleveland Center
Sun 07:37:58 PM 41.1347 -81.2256 151° Southeast 386 444 21,000 3,100 Climbing Cleveland Center
Sun 07:38:58 PM 41.0347 -81.1997 169° South 401 461 24,000 2,650 Climbing Cleveland Center
Sun 07:39:58 PM 40.9139 -81.2014 181° South 416 479 26,300 2,450 Climbing Cleveland Center
Sun 07:40:58 PM 40.7867 -81.1975 179° South 446 513 28,900 2,650 Climbing Cleveland Center
Sun 07:41:58 PM 40.6617 -81.1961 180° South 455 524 31,600 2,750 Climbing Cleveland Center
Sun 07:42:58 PM 40.5428 -81.1950 180° South 449 517 34,400 2,350 Climbing Cleveland Center
Sun 07:43:58 PM 40.4261 -81.1939 180° South 429 494 36,300 1,640 Climbing Cleveland Center
Sun 07:45:39 PM 40.2275 -81.1925 180° South 407 468 38,800 1,333 Climbing Indianapolis Center
Sun 07:46:40 PM 40.1150 -81.1917 180° South 401 461 39,900 585 Climbing Indianapolis Center
Sun 07:47:42 PM 40.0008 -81.1911 180° South 405 466 40,000 48 Climbing Indianapolis Center
Sun 07:48:44 PM 39.8681 -81.1908 180° South 423 487 40,000  Level Indianapolis Center
Sun 07:49:45 PM 39.7469 -81.1883 179° South 431 496 40,000  Level Indianapolis Center
Sun 07:50:47 PM 39.6267 -81.1881 180° South 431 496 40,000  Level Indianapolis Center
Sun 07:51:49 PM 39.5042 -81.1867 179° South 437 503 40,000  Level Indianapolis Center
Sun 07:52:50 PM 39.3833 -81.1853 179° South 435 501 40,000  Level Indianapolis Center
Sun 07:53:52 PM 39.2606 -81.1856 180° South 438 504 40,000  Level Indianapolis Center
Sun 07:54:54 PM 39.1375 -81.1836 179° South 439 505 40,000  Level Indianapolis Center
Sun 07:55:55 PM 39.0144 -81.1831 180° South 440 506 40,000  Level Indianapolis Center
Sun 07:56:57 PM 38.8908 -81.1811 179° South 439 505 40,000  Level Indianapolis Center
Sun 07:57:58 PM 38.7661 -81.1800 180° South 440 506 40,000  Level Indianapolis Center
Sun 07:59:00 PM 38.6428 -81.1806 180° South 438 504 40,000  Level Indianapolis Center
Sun 08:00:01 PM 38.4942 -81.1794 180° South 439 505 40,000  Level Indianapolis Center
Sun 08:01:03 PM 38.3692 -81.1778 179° South 442 509 40,000  Level Indianapolis Center
Sun 08:02:05 PM 38.2442 -81.1775 180° South 442 509 40,000  Level Indianapolis Center
Sun 08:03:06 PM 38.1225 -81.1764 180° South 441 507 40,000  Level Indianapolis Center
Sun 08:04:08 PM 37.9989 -81.1753 180° South 442 509 40,000  Level Indianapolis Center
Sun 08:05:09 PM 37.8753 -81.1742 180° South 441 507 40,000  Level Indianapolis Center
Sun 08:06:11 PM 37.7439 -81.1722 179° South 438 504 40,000  Level Indianapolis Center
Sun 08:07:12 PM 37.6236 -81.1719 180° South 443 510 40,000  Level Indianapolis Center
Sun 08:08:14 PM 37.5025 -81.1719 180° South 448 516 40,000  Level Indianapolis Center
Sun 08:09:16 PM 37.3617 -81.1700 179° South 437 503 40,000  Level Indianapolis Center
Sun 08:10:17 PM 37.2458 -81.1694 180° South 431 496 40,000  Level Indianapolis Center
Sun 08:11:19 PM 37.1328 -81.1683 180° South 422 486 40,000  Level Indianapolis Center
Sun 08:11:46 PM 37.0633 -81.1725 183° South 439 505 40,000  Level Atlanta Center
Sun 08:12:46 PM 36.9444 -81.1689 179° South 434 499 40,000  Level Atlanta Center
Sun 08:13:46 PM 36.8256 -81.1681 180° South 429 494 40,000  Level Atlanta Center
Sun 08:14:46 PM 36.7253 -81.1639 178° South 423 487 40,000  Level Atlanta Center
Sun 08:15:46 PM 36.6044 -81.1631 180° South 423 487 40,000  Level Atlanta Center
Sun 08:16:46 PM 36.4856 -81.1622 180° South 423 487 40,000  Level Atlanta Center
Sun 08:17:46 PM 36.3667 -81.1614 180° South 431 496 40,000  Level Atlanta Center
Sun 08:18:46 PM 36.2456 -81.1606 180° South 431 496 40,000  Level Atlanta Center
Sun 08:19:46 PM 36.1308 -81.1594 180° South 426 490 40,000  Level Atlanta Center
Sun 08:20:46 PM 36.0036 -81.1589 180° South 421 484 40,000  Level Atlanta Center
Sun 08:21:46 PM 35.8847 -81.1606 181° South 421 484 40,000  Level Atlanta Center
Sun 08:22:46 PM 35.7700 -81.1569 179° South 421 484 40,000  Level Atlanta Center
Sun 08:23:46 PM 35.6550 -81.1533 179° South 430 495 40,000  Level Atlanta Center
Sun 08:24:46 PM 35.5425 -81.1522 180° South 430 495 40,000  Level Atlanta Center
Sun 08:25:46 PM 35.4258 -81.1561 182° South 419 482 40,000  Level Atlanta Center
Sun 08:26:46 PM 35.3089 -81.1578 181° South 419 482 40,000  Level Atlanta Center
Sun 08:27:46 PM 35.1919 -81.1567 180° South 419 482 40,000  Level Atlanta Center
Sun 08:28:46 PM 35.0647 -81.1536 179° South 419 482 40,000  Level Atlanta Center
Sun 08:29:46 PM 34.9478 -81.1550 181° South 419 482 40,000  Level Atlanta Center
Sun 08:32:03 PM 34.6819 -81.1506 179° South 419 482 40,000  Level Jacksonville Center
Sun 08:33:03 PM 34.5650 -81.1553 182° South 424 488 40,000  Level Jacksonville Center
Sun 08:34:03 PM 34.4606 -81.1475 176° South 419 482 40,000  Level Jacksonville Center
Sun 08:35:03 PM 34.3481 -81.1522 182° South 419 482 40,000  Level Jacksonville Center
Sun 08:36:04 PM 34.2417 -81.1494 179° South 410 472 40,000  Level Jacksonville Center
Sun 08:37:03 PM 34.1289 -81.1467 179° South 405 466 40,000  Level Jacksonville Center
Sun 08:38:03 PM 34.0122 -81.1439 179° South 405 466 40,000  Level Jacksonville Center
Sun 08:39:03 PM 33.9036 -81.1436 180° South 410 472 40,000  Level Jacksonville Center
Sun 08:40:03 PM 33.7889 -81.1433 180° South 410 472 40,000  Level Jacksonville Center
Sun 08:41:03 PM 33.6761 -81.1481 182° South 405 466 40,000  Level Jacksonville Center
Sun 08:42:03 PM 33.5633 -81.1453 179° South 405 466 40,000  Level Jacksonville Center
Sun 08:43:03 PM 33.4486 -81.1450 180° South 405 466 40,000  Level Jacksonville Center
Sun 08:44:03 PM 33.3381 -81.1422 179° South 405 466 40,000  Level Jacksonville Center
Sun 08:45:03 PM 33.2233 -81.1419 180° South 405 466 40,000  Level Jacksonville Center
Sun 08:46:03 PM 33.1083 -81.1417 180° South 405 466 40,000  Level Jacksonville Center
Sun 08:47:03 PM 32.9958 -81.1414 180° South 405 466 40,000  Level Jacksonville Center
Sun 08:48:03 PM 32.8808 -81.1414 180° South 405 466 40,000  Level Jacksonville Center
Sun 08:49:03 PM 32.7639 -81.1386 179° South 411 473 40,000  Level Jacksonville Center
Sun 08:50:03 PM 32.6428 -81.1386 180° South 411 473 40,000  Level Jacksonville Center
Sun 08:51:03 PM 32.5386 -81.1381 180° South 406 467 40,000  Level Jacksonville Center
Sun 08:52:03 PM 32.4258 -81.1378 180° South 406 467 40,000  Level Jacksonville Center
Sun 08:53:03 PM 32.3067 -81.1350 179° South 417 480 40,000  Level Jacksonville Center
Sun 08:54:03 PM 32.1897 -81.1350 180° South 422 486 40,000  Level Jacksonville Center
Sun 08:55:03 PM 32.0750 -81.1347 180° South 417 480 40,000  Level Jacksonville Center
Sun 08:56:03 PM 31.9603 -81.1319 179° South 417 480 40,000  Level Jacksonville Center
Sun 08:57:03 PM 31.8411 -81.1294 179° South 423 487 40,000  Level Jacksonville Center
Sun 08:58:03 PM 31.7158 -81.1292 180° South 416 479 40,000  Level Jacksonville Center
Sun 08:59:03 PM 31.6011 -81.1289 180° South 422 486 40,000  Level Jacksonville Center
Sun 09:00:03 PM 31.4944 -81.1286 180° South 417 480 40,000  Level Jacksonville Center
Sun 09:01:03 PM 31.3672 -81.1261 179° South 422 486 40,000  Level Jacksonville Center
Sun 09:02:03 PM 31.2481 -81.1283 181° South 416 479 40,000  Level Jacksonville Center
Sun 09:03:03 PM 31.1311 -81.1258 179° South 422 486 40,000  Level Jacksonville Center
Sun 09:04:03 PM 31.0119 -81.1108 174° South 422 486 40,000  Level Jacksonville Center
Sun 09:05:03 PM 30.8906 -81.0867 170° South 429 494 40,000  Level Jacksonville Center
Sun 09:06:03 PM 30.7711 -81.0622 170° South 434 499 40,000  Level Jacksonville Center
Sun 09:07:03 PM 30.6478 -81.0406 171° South 434 499 40,000  Level Jacksonville Center
Sun 09:08:03 PM 30.5283 -81.0186 171° South 439 505 40,000  Level Jacksonville Center
Sun 09:09:03 PM 30.4069 -80.9947 170° South 444 511 40,000  Level Jacksonville Center
Sun 09:10:03 PM 30.3022 -80.9728 170° South 444 511 40,000  Level Jacksonville Center
Sun 09:11:03 PM 30.1786 -80.9536 172° South 449 517 40,000  Level Jacksonville Center
Sun 09:12:03 PM 30.0572 -80.9319 171° South 449 517 40,000  Level Jacksonville Center
Sun 09:13:03 PM 29.9358 -80.9056 169° South 449 517 40,000  Level Jacksonville Center
Sun 09:14:03 PM 29.8164 -80.8842 171° South 444 511 40,000  Level Jacksonville Center
Sun 09:15:04 PM 29.6972 -80.8628 171° South 444 511 40,000  Level Jacksonville Center
Sun 09:16:03 PM 29.5778 -80.8414 171° South 444 511 40,000  Level Jacksonville Center
Sun 09:17:03 PM 29.4625 -80.8150 169° South 444 511 40,000  Level Jacksonville Center
Sun 09:18:03 PM 29.3411 -80.7939 171° South 438 504 40,000 -1,905 Level Jacksonville Center
Sun 09:19:09 PM 29.1967 -80.7714 172° South 435 501 36,000 -1,524 Descending Miami Center
Sun 09:20:09 PM 29.0803 -80.7483 170° South 430 495 36,800  Climbing Miami Center
Sun 09:21:09 PM 28.9667 -80.7111 164° South 425 489 36,000 -400 Descending Miami Center
Sun 09:22:09 PM 28.8694 -80.6769 163° South 425 489 36,000  Level Miami Center
Sun 09:23:09 PM 28.7539 -80.6328 161° South 430 495 36,000 -500 Level Miami Center
Sun 09:24:09 PM 28.6236 -80.5906 164° South 438 504 35,000 -1,750 Descending Miami Center
Sun 09:25:09 PM 28.5058 -80.5489 163° South 444 511 32,500 -2,550 Descending Miami Center
Sun 09:26:09 PM 28.3858 -80.5047 162° South 444 511 29,900 -2,600 Descending Miami Center
Sun 09:27:09 PM 28.2803 -80.4683 163° South 444 511 27,300 -2,700 Descending Miami Center
Sun 09:28:09 PM 28.1519 -80.4242 163° South 438 504 24,500 -2,450 Descending Miami Center
Sun 09:29:09 PM 28.0439 -80.4067 172° South 413 475 22,400 -2,000 Descending Miami Center
Sun 09:30:09 PM 27.9356 -80.4033 178° South 399 459 20,500 -1,750 Descending Miami Center
Sun 09:31:09 PM 27.8350 -80.4094 183° South 386 444 18,900 -1,650 Descending Miami Center
Sun 09:32:09 PM 27.7350 -80.4064 178° South 374 430 17,200 -1,650 Descending Miami Center
Sun 09:33:09 PM 27.6311 -80.3869 171° South 374 430 15,600 -1,700 Descending Miami Center
Sun 09:34:09 PM 27.5194 -80.3483 163° South 386 444 13,800 -1,650 Descending Miami Center
Sun 09:35:09 PM 27.4247 -80.2892 151° Southeast 386 444 12,300 -1,450 Descending Miami Center
Sun 09:36:09 PM 27.3247 -80.2747 173° South 367 422 10,900 -1,100 Descending Miami Center
Sun 09:37:09 PM 27.2394 -80.2628 173° South 351 404 10,100 -800 Descending Miami Center
Sun 09:38:09 PM 27.1500 -80.2461 171° South 312 359 9,300 -900 Descending Miami Center
Sun 09:39:09 PM 27.0711 -80.2322 171° South 293 337 8,300 -950 Descending Miami Center
Sun 09:40:09 PM 27.0119 -80.1722 138° Southeast 278 320 7,400 -950 Descending Miami Center
Sun 09:41:09 PM 26.9544 -80.1308 147° Southeast 278 320 6,400 -950 Descending Miami Center
Sun 09:42:09 PM 26.8756 -80.1053 164° South 268 308 5,500 -1,000 Descending Miami Center
Sun 09:43:09 PM 26.8136 -80.0758 157° South 248 285 4,400 -1,050 Descending Miami Center
Sun 09:44:09 PM 26.7625 -80.0231 137° Southeast 248 285 3,400 -1,000 Descending Miami Center
Sun 09:46:00 PM 26.5612 -80.0675 170° South  Level Estimated
Sun 09:53:00 PM 26.3785 -80.1077 180° South  Level Estimated
Sun 09:54:00 PM 26.3785 -80.1077 180° South  Level Estimated
Sun 09:55:00 PM 26.3785 -80.1077 180° South  Level Estimated
Sun 09:56:00 PM 26.3785 -80.1077 180° South  Level Estimated
Sun 09:57:00 PM 26.3785 -80.1077 180° South  Level Estimated
Sun 09:58:00 PM 26.3785 -80.1077 180° South  Level Estimated
Sun 09:59:00 PM 26.3785 -80.1077 180° South  Level Estimated

Login

Don't have an account? Register now (free) for customized features, flight alerts, and more!